createdAt,value
2023-03-05T00:01:35.432Z,10.25
2023-03-05T00:04:05.084Z,9.13
2023-03-05T00:06:33.304Z,9.55
2023-03-05T00:09:00.949Z,9.33
2023-03-05T00:11:30.412Z,8.82
2023-03-05T00:13:58.619Z,10.82
2023-03-05T00:16:28.827Z,9.13
2023-03-05T00:18:57.262Z,9.85
2023-03-05T00:21:35.979Z,9.63
2023-03-05T00:24:05.473Z,8.85
2023-03-05T00:26:34.646Z,9.68
2023-03-05T00:29:02.655Z,8.57
2023-03-05T00:31:31.168Z,10.60
2023-03-05T00:34:01.015Z,10.00
2023-03-05T00:36:28.680Z,10.75
2023-03-05T00:38:56.287Z,10.82
2023-03-05T00:41:23.480Z,10.02
2023-03-05T00:43:50.675Z,12.35
2023-03-05T00:46:17.854Z,10.97
2023-03-05T00:48:45.097Z,11.52
2023-03-05T00:51:12.113Z,10.73
2023-03-05T00:53:39.382Z,11.60
2023-03-05T00:56:06.985Z,13.15
2023-03-05T00:58:34.323Z,11.80
2023-03-05T01:01:02.913Z,10.77
2023-03-05T01:03:34.101Z,9.70
2023-03-05T01:06:03.874Z,11.05
2023-03-05T01:08:31.001Z,12.80
2023-03-05T01:10:57.833Z,11.27
2023-03-05T01:13:24.934Z,10.13
2023-03-05T01:15:51.725Z,10.65
2023-03-05T01:18:19.914Z,13.13
2023-03-05T01:20:47.556Z,13.65
2023-03-05T01:23:15.556Z,11.80
2023-03-05T01:25:42.383Z,10.15
2023-03-05T01:28:09.802Z,11.48
2023-03-05T01:30:37.014Z,10.30
2023-03-05T01:33:04.214Z,11.43
2023-03-05T01:35:31.076Z,12.40
2023-03-05T01:37:58.278Z,11.70
2023-03-05T01:40:27.560Z,11.52
2023-03-05T01:43:19.353Z,10.60
2023-03-05T01:46:22.994Z,10.43
2023-03-05T01:48:55.051Z,10.50
2023-03-05T01:51:26.173Z,12.30
2023-03-05T01:53:55.165Z,9.27
2023-03-05T01:56:22.123Z,14.52
2023-03-05T01:58:50.136Z,15.90
2023-03-05T02:01:17.221Z,14.60
2023-03-05T02:03:44.755Z,14.13
2023-03-05T02:06:11.679Z,12.43
2023-03-05T02:08:38.740Z,10.68
2023-03-05T02:11:06.032Z,10.38
2023-03-05T02:13:35.835Z,9.97
2023-03-05T02:16:02.890Z,9.43
2023-03-05T02:18:30.074Z,10.05
2023-03-05T02:20:56.843Z,10.02
2023-03-05T02:23:26.740Z,10.50
2023-03-05T02:25:54.176Z,8.67
2023-03-05T02:28:38.280Z,9.40
2023-03-05T02:31:10.962Z,9.43
2023-03-05T02:33:38.090Z,9.23
2023-03-05T02:36:05.704Z,9.13
2023-03-05T02:38:33.646Z,9.93
2023-03-05T02:41:03.409Z,9.55
2023-03-05T02:43:30.612Z,9.90
2023-03-05T02:45:58.165Z,8.85
2023-03-05T02:48:25.344Z,9.80
2023-03-05T02:50:52.474Z,10.00
2023-03-05T02:53:19.751Z,10.18
2023-03-05T02:55:47.977Z,9.35
2023-03-05T02:58:15.983Z,9.88
2023-03-05T03:00:43.437Z,9.32
2023-03-05T03:03:10.594Z,9.30
2023-03-05T03:05:37.391Z,9.73
2023-03-05T03:08:07.561Z,10.25
2023-03-05T03:10:34.382Z,9.73
2023-03-05T03:13:01.934Z,9.93
2023-03-05T03:15:28.741Z,10.10
2023-03-05T03:17:56.194Z,9.32
2023-03-05T03:20:23.168Z,10.45
2023-03-05T03:22:50.623Z,10.90
2023-03-05T03:25:20.505Z,10.45
2023-03-05T03:27:47.801Z,9.80
2023-03-05T03:30:15.857Z,9.63
2023-03-05T03:32:43.412Z,9.43
2023-03-05T03:35:11.705Z,8.88
2023-03-05T03:37:39.396Z,9.32
2023-03-05T03:40:07.063Z,8.43
2023-03-05T03:42:34.173Z,7.07
2023-03-05T03:45:02.419Z,8.18
2023-03-05T03:47:31.112Z,7.97
2023-03-05T03:49:59.122Z,8.77
2023-03-05T03:52:26.670Z,10.27
2023-03-05T03:54:55.724Z,9.02
2023-03-05T03:57:22.967Z,9.43
2023-03-05T03:59:50.512Z,8.52
2023-03-05T04:02:17.970Z,9.68
2023-03-05T04:04:44.865Z,8.23
2023-03-05T04:07:12.019Z,9.82
2023-03-05T04:09:39.090Z,9.63
2023-03-05T04:12:06.534Z,9.40
2023-03-05T04:14:33.339Z,8.75
2023-03-05T04:17:00.473Z,8.60
2023-03-05T04:19:28.496Z,12.98
2023-03-05T04:21:55.611Z,16.63
2023-03-05T04:24:22.510Z,17.63
2023-03-05T04:26:49.771Z,16.25
2023-03-05T04:29:16.587Z,19.23
2023-03-05T04:31:43.615Z,17.63
2023-03-05T04:34:10.403Z,18.00
2023-03-05T04:36:37.547Z,14.70
2023-03-05T04:39:04.927Z,13.25
2023-03-05T04:41:32.058Z,14.83
2023-03-05T04:43:58.872Z,16.38
2023-03-05T04:46:26.191Z,17.38
2023-03-05T04:48:54.952Z,17.92
2023-03-05T04:51:22.048Z,17.10
2023-03-05T04:53:49.160Z,16.97
2023-03-05T04:56:16.695Z,17.05
2023-03-05T04:58:43.476Z,16.25
2023-03-05T05:01:11.582Z,12.10
2023-03-05T05:03:38.391Z,9.85
2023-03-05T05:06:05.901Z,8.77
2023-03-05T05:08:32.915Z,8.27
2023-03-05T05:11:02.809Z,7.68
2023-03-05T05:13:31.022Z,7.03
2023-03-05T05:15:58.839Z,7.68
2023-03-05T05:18:27.046Z,7.80
2023-03-05T05:20:54.479Z,7.40
2023-03-05T05:23:21.315Z,6.78
2023-03-05T05:25:56.517Z,6.95
2023-03-05T05:28:23.507Z,6.85
2023-03-05T05:30:50.601Z,6.67
2023-03-05T05:33:17.371Z,5.55
2023-03-05T05:35:44.518Z,6.15
2023-03-05T05:38:11.323Z,5.88
2023-03-05T05:40:38.703Z,5.60
2023-03-05T05:43:06.307Z,5.53
2023-03-05T05:45:33.629Z,6.15
2023-03-05T05:48:00.540Z,5.70
2023-03-05T05:50:27.649Z,5.20
2023-03-05T05:52:54.474Z,5.47
2023-03-05T05:55:21.656Z,5.93
2023-03-05T05:57:48.460Z,11.60
2023-03-05T06:00:16.043Z,11.68
2023-03-05T06:02:43.997Z,9.45
2023-03-05T06:05:13.106Z,13.68
2023-03-05T06:07:40.478Z,12.27
2023-03-05T06:10:08.788Z,13.10
2023-03-05T06:12:35.575Z,10.70
2023-03-05T06:15:02.695Z,11.18
2023-03-05T06:17:31.037Z,10.02
2023-03-05T06:19:59.075Z,7.80
2023-03-05T06:22:25.945Z,5.70
2023-03-05T06:24:53.120Z,4.97
2023-03-05T06:27:19.903Z,6.65
2023-03-05T06:29:47.171Z,4.93
2023-03-05T06:32:14.025Z,4.80
2023-03-05T06:34:41.121Z,5.47
2023-03-05T06:37:07.931Z,7.15
2023-03-05T06:39:35.228Z,6.30
2023-03-05T06:42:02.139Z,6.13
2023-03-05T06:44:29.400Z,7.43
2023-03-05T06:46:56.315Z,8.30
2023-03-05T06:49:23.718Z,14.88
2023-03-05T06:51:50.529Z,15.40
2023-03-05T06:54:17.979Z,13.35
2023-03-05T06:56:46.529Z,11.60
2023-03-05T06:59:15.252Z,10.88
2023-03-05T07:01:42.848Z,10.93
2023-03-05T07:04:11.794Z,14.40
2023-03-05T07:06:39.640Z,10.60
2023-03-05T07:09:08.320Z,11.80
2023-03-05T07:11:35.387Z,11.40
2023-03-05T07:14:03.360Z,12.73
2023-03-05T07:16:33.125Z,12.35
2023-03-05T07:19:03.613Z,10.70
2023-03-05T07:21:32.740Z,14.97
2023-03-05T07:24:01.791Z,12.18
2023-03-05T07:26:33.487Z,10.38
2023-03-05T07:29:01.718Z,9.65
2023-03-05T07:31:31.884Z,10.15
2023-03-05T07:34:01.173Z,11.10
2023-03-05T07:36:28.066Z,11.15
2023-03-05T07:38:55.213Z,12.32
2023-03-05T07:41:23.632Z,10.48
2023-03-05T07:43:53.589Z,13.13
2023-03-05T07:46:26.643Z,11.97
2023-03-05T07:48:54.759Z,12.57
2023-03-05T07:51:23.344Z,11.07
2023-03-05T07:53:52.391Z,11.48
2023-03-05T07:56:32.035Z,11.48
2023-03-05T07:59:00.003Z,11.97
2023-03-05T08:01:28.710Z,12.27
2023-03-05T08:03:56.103Z,12.57
2023-03-05T08:06:22.897Z,12.43
2023-03-05T08:08:50.040Z,14.82
2023-03-05T08:11:17.072Z,11.33
2023-03-05T08:13:44.885Z,12.40
2023-03-05T08:16:17.831Z,13.43
2023-03-05T08:18:46.250Z,13.65
2023-03-05T08:21:22.348Z,11.95
2023-03-05T08:23:49.599Z,12.20
2023-03-05T08:26:19.258Z,10.40
2023-03-05T08:28:46.447Z,11.93
2023-03-05T08:31:14.709Z,11.88
2023-03-05T08:33:42.435Z,9.30
2023-03-05T08:36:10.242Z,10.90
2023-03-05T08:38:37.423Z,11.13
2023-03-05T08:41:04.839Z,12.85
2023-03-05T08:43:33.229Z,10.57
2023-03-05T08:46:01.488Z,10.18
2023-03-05T08:48:29.344Z,11.10
2023-03-05T08:50:56.573Z,11.05
2023-03-05T08:53:24.429Z,12.73
2023-03-05T08:55:58.084Z,13.57
2023-03-05T08:58:25.410Z,11.52
2023-03-05T09:00:52.265Z,10.90
2023-03-05T09:03:19.529Z,10.85
2023-03-05T09:05:46.353Z,11.30
2023-03-05T09:08:13.547Z,11.85
2023-03-05T09:10:44.420Z,11.95
2023-03-05T09:13:11.998Z,9.73
2023-03-05T09:15:39.099Z,10.07
2023-03-05T09:18:06.735Z,10.32
2023-03-05T09:20:34.009Z,8.60
2023-03-05T09:23:01.364Z,8.02
2023-03-05T09:25:28.201Z,7.57
2023-03-05T09:27:55.407Z,7.40
2023-03-05T09:30:22.222Z,7.22
2023-03-05T09:32:51.152Z,6.80
2023-03-05T09:35:18.233Z,6.47
2023-03-05T09:37:45.549Z,7.67
2023-03-05T09:40:17.791Z,7.05
2023-03-05T09:42:53.938Z,7.60
2023-03-05T09:45:30.407Z,6.18
2023-03-05T09:48:12.901Z,5.95
2023-03-05T09:51:04.135Z,6.13
2023-03-05T09:53:45.135Z,5.88
2023-03-05T09:56:16.002Z,6.05
2023-03-05T09:58:49.458Z,5.93
2023-03-05T10:01:20.848Z,5.50
2023-03-05T10:03:59.669Z,6.23
2023-03-05T10:06:29.958Z,5.88
2023-03-05T10:09:21.424Z,5.78
2023-03-05T10:12:05.274Z,5.35
2023-03-05T10:14:35.759Z,5.50
2023-03-05T10:17:22.670Z,5.37
2023-03-05T10:20:07.264Z,7.25
2023-03-05T10:22:52.032Z,6.50
2023-03-05T10:25:52.193Z,6.00
2023-03-05T10:28:30.909Z,5.50
2023-03-05T10:31:16.345Z,6.00
2023-03-05T10:34:08.038Z,7.32
2023-03-05T10:36:47.464Z,7.20
2023-03-05T10:39:23.401Z,5.90
2023-03-05T10:41:57.225Z,7.40
2023-03-05T10:44:36.742Z,6.97
2023-03-05T10:47:14.841Z,7.15
2023-03-05T10:49:56.612Z,6.00
2023-03-05T10:52:40.645Z,5.93
2023-03-05T10:55:16.804Z,7.03
2023-03-05T10:57:44.627Z,6.80
2023-03-05T11:00:20.489Z,6.10
2023-03-05T11:03:02.777Z,6.20
2023-03-05T11:05:38.762Z,5.65
2023-03-05T11:08:37.138Z,5.60
2023-03-05T11:11:08.142Z,5.60
2023-03-05T11:13:38.597Z,5.40
2023-03-05T11:16:07.860Z,6.32
2023-03-05T11:18:34.997Z,5.70
2023-03-05T11:21:28.714Z,6.00
2023-03-05T11:24:14.257Z,5.40
2023-03-05T11:26:55.576Z,6.18
2023-03-05T11:29:31.529Z,6.22
2023-03-05T11:32:22.028Z,5.72
2023-03-05T11:34:49.366Z,5.55
2023-03-05T11:37:28.847Z,4.83
2023-03-05T11:40:21.180Z,4.78
2023-03-05T11:42:55.702Z,5.82
2023-03-05T11:45:25.592Z,5.93
2023-03-05T11:47:55.535Z,5.10
2023-03-05T11:50:24.425Z,5.40
2023-03-05T11:53:00.265Z,6.82
2023-03-05T11:55:36.428Z,6.68
2023-03-05T11:58:28.597Z,6.15
2023-03-05T12:00:56.493Z,6.45
2023-03-05T12:03:29.392Z,6.10
2023-03-05T12:06:02.292Z,5.97
2023-03-05T12:08:38.448Z,5.88
2023-03-05T12:11:35.990Z,4.75
2023-03-05T12:14:05.951Z,4.53
2023-03-05T12:16:43.894Z,5.43
2023-03-05T12:19:26.000Z,4.20
2023-03-05T12:21:53.285Z,4.40
2023-03-05T12:24:28.417Z,5.50
2023-03-05T12:27:04.769Z,5.53
2023-03-05T12:29:37.721Z,5.17
2023-03-05T12:32:06.866Z,5.60
2023-03-05T12:34:39.764Z,5.53
2023-03-05T12:37:12.511Z,4.45
2023-03-05T12:39:46.122Z,6.15
2023-03-05T12:42:28.392Z,5.53
2023-03-05T12:45:11.784Z,4.57
2023-03-05T12:47:43.360Z,5.05
2023-03-05T12:50:28.502Z,5.72
2023-03-05T12:53:04.710Z,4.93
2023-03-05T12:55:33.694Z,4.63
2023-03-05T12:58:09.523Z,5.10
2023-03-05T13:01:09.205Z,5.00
2023-03-05T13:03:50.471Z,4.93
2023-03-05T13:06:30.305Z,5.50
2023-03-05T13:09:00.463Z,5.40
2023-03-05T13:11:29.823Z,4.80
2023-03-05T13:13:57.918Z,4.95
2023-03-05T13:16:29.296Z,4.38
2023-03-05T13:19:01.221Z,4.72
2023-03-05T13:21:30.967Z,4.77
2023-03-05T13:24:01.857Z,3.85
2023-03-05T13:26:38.881Z,5.45
2023-03-05T13:29:13.655Z,5.10
2023-03-05T13:32:01.805Z,5.05
2023-03-05T13:34:46.726Z,5.57
2023-03-05T13:37:19.992Z,4.60
2023-03-05T13:39:56.103Z,4.78
2023-03-05T13:42:32.488Z,4.80
2023-03-05T13:45:02.947Z,5.15
2023-03-05T13:47:32.514Z,4.70
2023-03-05T13:50:04.968Z,4.97
2023-03-05T13:52:37.830Z,4.35
2023-03-05T13:55:13.700Z,4.97
2023-03-05T13:57:46.326Z,4.72
2023-03-05T14:00:33.406Z,5.33
2023-03-05T14:03:09.900Z,4.82
2023-03-05T14:05:37.607Z,5.78
2023-03-05T14:08:04.613Z,5.00
2023-03-05T14:10:36.513Z,4.25
2023-03-05T14:13:11.521Z,5.07
2023-03-05T14:15:39.332Z,4.78
2023-03-05T14:18:12.159Z,4.90
2023-03-05T14:20:41.298Z,4.80
2023-03-05T14:23:31.104Z,4.85
2023-03-05T14:26:19.283Z,5.07
2023-03-05T14:28:55.792Z,5.35
2023-03-05T14:31:24.366Z,4.78
2023-03-05T14:33:51.825Z,4.93
2023-03-05T14:36:27.209Z,5.10
2023-03-05T14:38:54.268Z,4.90
2023-03-05T14:41:41.954Z,4.22
2023-03-05T14:44:17.388Z,4.45
2023-03-05T14:46:49.272Z,5.00
2023-03-05T14:49:17.261Z,4.20
2023-03-05T14:51:46.317Z,4.97
2023-03-05T14:54:22.554Z,4.47
2023-03-05T14:56:50.504Z,4.82
2023-03-05T14:59:21.796Z,5.68
2023-03-05T15:01:50.924Z,4.65
2023-03-05T15:04:19.875Z,4.80
2023-03-05T15:06:50.906Z,4.88
2023-03-05T15:09:19.870Z,4.10
2023-03-05T15:11:48.282Z,5.13
2023-03-05T15:14:15.090Z,5.32
2023-03-05T15:16:44.117Z,4.80
2023-03-05T15:19:14.252Z,4.55
2023-03-05T15:21:41.841Z,5.20
2023-03-05T15:24:11.305Z,4.25
2023-03-05T15:26:38.871Z,5.30
2023-03-05T15:29:05.676Z,5.20
2023-03-05T15:31:38.753Z,5.25
2023-03-05T15:34:06.567Z,4.40
2023-03-05T15:36:33.928Z,4.88
2023-03-05T15:39:00.877Z,4.57
2023-03-05T15:41:28.145Z,4.23
2023-03-05T15:43:55.025Z,5.20
2023-03-05T15:46:22.153Z,5.25
2023-03-05T15:48:50.338Z,4.97
2023-03-05T15:51:18.287Z,5.10
2023-03-05T15:53:46.486Z,5.10
2023-03-05T15:56:17.851Z,5.70
2023-03-05T15:58:45.191Z,5.45
2023-03-05T16:01:13.025Z,4.78
2023-03-05T16:03:39.893Z,5.05
2023-03-05T16:06:08.842Z,4.63
2023-03-05T16:08:36.916Z,5.10
2023-03-05T16:11:04.890Z,4.95
2023-03-05T16:13:34.532Z,4.80
2023-03-05T16:16:03.432Z,5.57
2023-03-05T16:18:32.612Z,5.00
2023-03-05T16:20:59.924Z,5.30
2023-03-05T16:23:26.842Z,5.47
2023-03-05T16:25:54.211Z,5.63
2023-03-05T16:28:21.138Z,5.65
2023-03-05T16:30:58.039Z,4.90
2023-03-05T16:33:25.220Z,5.20
2023-03-05T16:36:22.870Z,5.07
2023-03-05T16:38:51.138Z,5.40
2023-03-05T16:41:18.357Z,5.13
2023-03-05T16:43:45.356Z,5.57
2023-03-05T16:46:14.769Z,4.80
2023-03-05T16:48:43.441Z,5.18
2023-03-05T16:51:12.212Z,4.93
2023-03-05T16:53:39.821Z,4.50
2023-03-05T16:56:08.569Z,4.90
2023-03-05T16:58:37.180Z,4.60
2023-03-05T17:01:09.865Z,4.88
2023-03-05T17:03:41.342Z,5.00
2023-03-05T17:06:19.923Z,5.57
2023-03-05T17:08:48.385Z,5.37
2023-03-05T17:11:15.851Z,5.25
2023-03-05T17:13:43.229Z,5.57
2023-03-05T17:16:12.129Z,4.82
2023-03-05T17:18:39.438Z,5.50
2023-03-05T17:21:08.542Z,4.80
2023-03-05T17:23:36.465Z,4.90
2023-03-05T17:26:09.104Z,4.72
2023-03-05T17:28:36.284Z,5.70
2023-03-05T17:31:04.164Z,5.10
2023-03-05T17:33:32.641Z,5.00
2023-03-05T17:36:00.586Z,4.53
2023-03-05T17:38:28.232Z,4.22
2023-03-05T17:40:55.629Z,3.42
2023-03-05T17:43:22.796Z,3.38
2023-03-05T17:45:50.057Z,3.30
2023-03-05T17:48:16.876Z,2.63
2023-03-05T17:50:45.190Z,3.15
2023-03-05T17:53:12.418Z,2.85
2023-03-05T17:55:40.199Z,2.90
2023-03-05T17:58:07.291Z,2.80
2023-03-05T18:00:35.665Z,3.03
2023-03-05T18:03:02.788Z,3.10
2023-03-05T18:05:30.136Z,3.35
2023-03-05T18:07:57.544Z,2.90
2023-03-05T18:10:27.173Z,3.10
2023-03-05T18:12:56.455Z,3.20
2023-03-05T18:15:25.670Z,3.10
2023-03-05T18:17:52.869Z,3.22
2023-03-05T18:20:30.067Z,3.00
2023-03-05T18:22:58.325Z,3.07
2023-03-05T18:25:31.063Z,3.67
2023-03-05T18:27:59.004Z,3.40
2023-03-05T18:30:26.764Z,3.15
2023-03-05T18:32:53.602Z,3.00
2023-03-05T18:35:21.593Z,3.07
2023-03-05T18:37:48.402Z,3.00
2023-03-05T18:40:19.548Z,3.00
2023-03-05T18:42:46.641Z,3.00
2023-03-05T18:45:15.568Z,3.05
2023-03-05T18:47:42.711Z,3.00
2023-03-05T18:50:12.085Z,2.95
2023-03-05T18:52:38.928Z,3.20
2023-03-05T18:55:06.468Z,3.00
2023-03-05T18:57:33.379Z,3.13
2023-03-05T19:00:00.627Z,2.90
2023-03-05T19:02:27.501Z,3.15
2023-03-05T19:04:54.626Z,3.20
2023-03-05T19:07:21.492Z,3.63
2023-03-05T19:09:55.201Z,3.30
2023-03-05T19:12:24.294Z,3.10
2023-03-05T19:14:52.009Z,3.60
2023-03-05T19:17:18.904Z,4.40
2023-03-05T19:19:51.551Z,4.30
2023-03-05T19:22:19.586Z,4.82
2023-03-05T19:24:46.881Z,5.00
2023-03-05T19:27:14.226Z,4.00
2023-03-05T19:29:43.298Z,3.72
2023-03-05T19:32:13.468Z,4.43
2023-03-05T19:34:40.913Z,5.25
2023-03-05T19:37:08.155Z,5.17
2023-03-05T19:39:35.629Z,4.93
2023-03-05T19:42:02.908Z,5.10
2023-03-05T19:44:31.538Z,5.32
2023-03-05T19:46:58.494Z,5.93
2023-03-05T19:49:25.816Z,5.47
2023-03-05T19:51:52.798Z,5.82
2023-03-05T19:54:21.622Z,6.20
2023-03-05T19:56:49.602Z,5.80
2023-03-05T19:59:18.758Z,6.07
2023-03-05T20:01:45.913Z,5.57
2023-03-05T20:04:17.266Z,5.28
2023-03-05T20:06:44.292Z,5.93
2023-03-05T20:09:11.889Z,5.85
2023-03-05T20:11:40.059Z,6.68
2023-03-05T20:14:08.202Z,6.33
2023-03-05T20:16:37.619Z,6.32
2023-03-05T20:19:06.923Z,5.82
2023-03-05T20:21:40.899Z,6.05
2023-03-05T20:24:12.393Z,5.35
2023-03-05T20:26:40.857Z,5.73
2023-03-05T20:29:08.885Z,5.88
2023-03-05T20:31:37.375Z,6.05
2023-03-05T20:34:09.345Z,5.85
2023-03-05T20:36:36.310Z,5.93
2023-03-05T20:39:05.795Z,5.63
2023-03-05T20:41:35.571Z,4.93
2023-03-05T20:44:03.548Z,4.55
2023-03-05T20:46:33.112Z,5.38
2023-03-05T20:49:03.260Z,4.03
2023-03-05T20:51:36.172Z,4.43
2023-03-05T20:54:10.936Z,4.97
2023-03-05T20:56:37.910Z,5.60
2023-03-05T20:59:08.858Z,4.57
2023-03-05T21:01:38.353Z,5.05
2023-03-05T21:04:06.102Z,4.43
2023-03-05T21:06:36.138Z,4.57
2023-03-05T21:09:03.496Z,5.00
2023-03-05T21:11:30.609Z,4.47
2023-03-05T21:13:57.944Z,4.40
2023-03-05T21:16:27.124Z,4.10
2023-03-05T21:18:56.066Z,4.70
2023-03-05T21:21:23.446Z,4.45
2023-03-05T21:23:50.528Z,4.72
2023-03-05T21:26:17.663Z,5.78
2023-03-05T21:28:44.949Z,6.03
2023-03-05T21:31:17.778Z,6.80
2023-03-05T21:33:45.517Z,6.40
2023-03-05T21:36:12.816Z,5.95
2023-03-05T21:38:40.724Z,5.05
2023-03-05T21:41:07.547Z,4.60
2023-03-05T21:43:34.807Z,3.90
2023-03-05T21:46:03.270Z,5.45
2023-03-05T21:48:31.694Z,6.93
2023-03-05T21:50:59.334Z,6.35
2023-03-05T21:53:26.882Z,6.60
2023-03-05T21:56:03.344Z,5.57
2023-03-05T21:58:33.032Z,5.55
2023-03-05T22:01:00.160Z,6.30
2023-03-05T22:03:28.692Z,6.57
2023-03-05T22:05:56.695Z,6.37
2023-03-05T22:08:24.454Z,6.75
2023-03-05T22:10:51.491Z,6.57
2023-03-05T22:13:20.226Z,7.47
2023-03-05T22:15:52.706Z,6.85
2023-03-05T22:18:23.246Z,6.97
2023-03-05T22:20:50.307Z,7.22
2023-03-05T22:23:18.581Z,6.00
2023-03-05T22:25:45.714Z,6.38
2023-03-05T22:28:13.072Z,5.90
2023-03-05T22:30:44.552Z,5.67
2023-03-05T22:33:12.404Z,5.38
2023-03-05T22:35:41.205Z,5.32
2023-03-05T22:38:12.336Z,6.38
2023-03-05T22:40:44.772Z,6.53
2023-03-05T22:43:12.447Z,5.07
2023-03-05T22:45:40.108Z,4.95
2023-03-05T22:48:09.961Z,4.68
2023-03-05T22:50:38.348Z,3.97
2023-03-05T22:53:05.680Z,3.72
2023-03-05T22:55:32.497Z,5.53
2023-03-05T22:57:59.770Z,6.18
2023-03-05T23:00:29.379Z,5.47
2023-03-05T23:02:56.675Z,6.07
2023-03-05T23:05:23.644Z,6.00
2023-03-05T23:07:50.786Z,5.67
2023-03-05T23:10:21.174Z,5.30
2023-03-05T23:12:52.104Z,5.30
2023-03-05T23:15:25.300Z,6.03
2023-03-05T23:17:52.666Z,6.25
2023-03-05T23:20:21.553Z,5.10
2023-03-05T23:22:52.859Z,4.22
2023-03-05T23:25:20.742Z,4.10
2023-03-05T23:27:48.594Z,4.07
2023-03-05T23:30:20.245Z,4.35
2023-03-05T23:32:57.791Z,3.53
2023-03-05T23:35:28.622Z,3.80
2023-03-05T23:37:57.876Z,3.50
2023-03-05T23:40:27.502Z,3.45
2023-03-05T23:42:54.703Z,3.65
2023-03-05T23:45:23.237Z,3.10
2023-03-05T23:47:51.639Z,3.25
2023-03-05T23:50:24.660Z,3.80
2023-03-05T23:52:52.335Z,3.35
2023-03-05T23:55:23.055Z,3.50
2023-03-05T23:57:50.502Z,3.30
